Gahanna, OH (43230)

5:32 PM EST on February 07, 2016 (GMT -0500)
The Crossing | | Change Station
CLOSE
Current Station
Personal Weather Station
Location: Columbus, OH
Elevation: 823 ft
Nearby Weather Stations

Elev 823 ft 40.03 °N, 82.87 °W | Updated 5 minutes ago

Mostly Cloudy
Mostly Cloudy
49.5 °F
Feels Like 49 °F
N
3.7
Wind Variable Wind from North

Today
High -- | Low -- °F
--% Chance of Precip.
Yesterday
High -- | Low -- °F
Precip. -- in
Pressure 29.91 in
Visibility 10.0 miles
Clouds Mostly Cloudy 14000 ft
Mostly Cloudy 25000 ft
Windchill 49 °F
Dew Point 26 °F
Humidity 40%
Rainfall 0.00 in
Snow Depth Not available.
7:34 AM 5:57 PM
Waning Crescent, 1% visible
METAR KCMH 072151Z 22015G22KT 10SM BKN140 BKN250 10/M07 A2989 RMK AO2 SLP127 T01001072
Pressure 29.91 in
Visibility 10.0 miles
Clouds Mostly Cloudy 14000 ft
Mostly Cloudy 25000 ft
Windchill 49 °F
Dew Point 26 °F
Humidity 40%
Rainfall 0.00 in
Snow Depth Not available.
7:34 AM 5:57 PM
Waning Crescent, 1% visible
METAR KCMH 072151Z 22015G22KT 10SM BKN140 BKN250 10/M07 A2989 RMK AO2 SLP127 T01001072

10-Day Weather Forecast

Almanac

Astronomy

Feb. 07, 2016 Rise Set
Actual Time
Civil Twilight
Nautical Twilight
Astronomical Twilight
Moon
Length of Visible Light
Length of Day
Tomorrow will be .
, % of the Moon is Illuminated

Today's Extremes

State Highs State Lows

Community

WunderPhotos

Upload Photos

1,891,324 photos uploaded!

WunderBlog® & News

Nearby

Air Quality

  Air Quality AQ Index Pollutant
Not available.

Snow Depth

Station Depth Elevation

Earthquake Activity

City Distance Mag. Time & Date
Minimum magnitude displayed is 2.5.

Coastal Water Temperatures

Place Temperature

Stations

Nearby Weather Stations

Station Location Temp. Windchill Dew Point Humidity Wind Precip. Elev Updated Type
                   

Watches & Warnings

There are currently no watches in effect.